sensor_id;sensor_type;location;lat;lon;timestamp;pressure;altitude;pressure_sealevel;temperature;humidity
21276;BME280;36472;52.170;20.884;2023-06-10T00:00:17;100402.44;;;21.87;63.31
21276;BME280;36472;52.170;20.884;2023-06-10T00:03:06;100406.28;;;21.84;63.24
21276;BME280;36472;52.170;20.884;2023-06-10T00:05:37;100403.13;;;21.81;63.32
21276;BME280;36472;52.170;20.884;2023-06-10T00:08:07;100403.97;;;21.81;62.99
21276;BME280;36472;52.170;20.884;2023-06-10T00:10:38;100403.13;;;21.81;62.77
21276;BME280;36472;52.170;20.884;2023-06-10T00:13:08;100407.47;;;21.82;62.47
21276;BME280;36472;52.170;20.884;2023-06-10T00:15:39;100410.63;;;21.85;61.64
21276;BME280;36472;52.170;20.884;2023-06-10T00:18:08;100402.94;;;21.82;61.96
21276;BME280;36472;52.170;20.884;2023-06-10T00:20:39;100398.78;;;21.80;62.01
21276;BME280;36472;52.170;20.884;2023-06-10T00:23:08;100399.97;;;21.77;62.20
21276;BME280;36472;52.170;20.884;2023-06-10T00:25:37;100401.16;;;21.75;62.58
21276;BME280;36472;52.170;20.884;2023-06-10T00:28:07;100410.81;;;21.76;62.83
21276;BME280;36472;52.170;20.884;2023-06-10T00:30:35;100412.84;;;21.74;63.00
21276;BME280;36472;52.170;20.884;2023-06-10T00:33:05;100404.81;;;21.74;63.33
21276;BME280;36472;52.170;20.884;2023-06-10T00:35:34;100399.47;;;21.74;63.72
21276;BME280;36472;52.170;20.884;2023-06-10T00:38:05;100402.97;;;21.74;63.50
21276;BME280;36472;52.170;20.884;2023-06-10T00:40:39;100402.50;;;21.71;62.73
21276;BME280;36472;52.170;20.884;2023-06-10T00:43:09;100398.84;;;21.63;61.93
21276;BME280;36472;52.170;20.884;2023-06-10T00:45:38;100400.69;;;21.63;61.52
21276;BME280;36472;52.170;20.884;2023-06-10T00:48:08;100395.53;;;21.53;59.75
21276;BME280;36472;52.170;20.884;2023-06-10T00:50:37;100397.72;;;21.50;59.54
21276;BME280;36472;52.170;20.884;2023-06-10T00:53:10;100397.88;;;21.48;58.66
21276;BME280;36472;52.170;20.884;2023-06-10T00:55:41;100401.03;;;21.43;59.27
21276;BME280;36472;52.170;20.884;2023-06-10T00:58:10;100406.53;;;21.42;57.97
21276;BME280;36472;52.170;20.884;2023-06-10T01:00:40;100409.75;;;21.37;56.82
21276;BME280;36472;52.170;20.884;2023-06-10T01:03:09;100413.91;;;21.32;56.14
21276;BME280;36472;52.170;20.884;2023-06-10T01:05:40;100411.94;;;21.25;55.36
21276;BME280;36472;52.170;20.884;2023-06-10T01:08:28;100411.28;;;21.23;54.12
21276;BME280;36472;52.170;20.884;2023-06-10T01:11:08;100405.28;;;21.13;53.26
21276;BME280;36472;52.170;20.884;2023-06-10T01:13:43;100409.63;;;21.06;53.53
21276;BME280;36472;52.170;20.884;2023-06-10T01:16:12;100416.97;;;21.04;53.69
21276;BME280;36472;52.170;20.884;2023-06-10T01:18:42;100418.31;;;21.00;53.30
21276;BME280;36472;52.170;20.884;2023-06-10T01:21:19;100425.84;;;20.96;53.33
21276;BME280;36472;52.170;20.884;2023-06-10T01:23:49;100425.66;;;20.89;52.46
21276;BME280;36472;52.170;20.884;2023-06-10T01:26:23;100419.13;;;20.84;51.40
21276;BME280;36472;52.170;20.884;2023-06-10T01:29:00;100427.00;;;20.77;51.44
21276;BME280;36472;52.170;20.884;2023-06-10T01:31:41;100423.13;;;20.71;51.45
21276;BME280;36472;52.170;20.884;2023-06-10T01:34:17;100429.63;;;20.61;49.67
21276;BME280;36472;52.170;20.884;2023-06-10T01:36:50;100428.94;;;20.59;48.96
21276;BME280;36472;52.170;20.884;2023-06-10T01:39:24;100423.09;;;20.55;48.42
21276;BME280;36472;52.170;20.884;2023-06-10T01:41:54;100429.28;;;20.55;49.70
21276;BME280;36472;52.170;20.884;2023-06-10T01:44:23;100425.91;;;20.45;49.15
21276;BME280;36472;52.170;20.884;2023-06-10T01:46:52;100429.56;;;20.44;49.38
21276;BME280;36472;52.170;20.884;2023-06-10T01:49:21;100431.72;;;20.32;47.78
21276;BME280;36472;52.170;20.884;2023-06-10T01:51:53;100440.22;;;20.28;47.82
21276;BME280;36472;52.170;20.884;2023-06-10T01:54:22;100436.03;;;20.25;47.41
21276;BME280;36472;52.170;20.884;2023-06-10T01:56:51;100432.88;;;20.22;46.70
21276;BME280;36472;52.170;20.884;2023-06-10T01:59:22;100435.88;;;20.27;46.45
21276;BME280;36472;52.170;20.884;2023-06-10T02:01:51;100437.22;;;20.23;46.53
21276;BME280;36472;52.170;20.884;2023-06-10T02:04:20;100430.50;;;20.18;46.48
21276;BME280;36472;52.170;20.884;2023-06-10T02:06:49;100435.19;;;20.16;46.65
21276;BME280;36472;52.170;20.884;2023-06-10T02:09:19;100437.84;;;20.16;46.99
21276;BME280;36472;52.170;20.884;2023-06-10T02:11:48;100437.50;;;20.11;47.12
21276;BME280;36472;52.170;20.884;2023-06-10T02:14:17;100433.84;;;20.12;46.84
21276;BME280;36472;52.170;20.884;2023-06-10T02:16:46;100437.50;;;20.11;48.13
21276;BME280;36472;52.170;20.884;2023-06-10T02:19:15;100433.50;;;20.07;46.73
21276;BME280;36472;52.170;20.884;2023-06-10T02:21:46;100439.09;;;19.96;47.11
21276;BME280;36472;52.170;20.884;2023-06-10T02:24:16;100445.63;;;19.93;47.21
21276;BME280;36472;52.170;20.884;2023-06-10T02:26:46;100447.06;;;19.88;48.24
21276;BME280;36472;52.170;20.884;2023-06-10T02:29:16;100447.75;;;19.90;49.50
21276;BME280;36472;52.170;20.884;2023-06-10T02:31:45;100451.06;;;19.84;49.39
21276;BME280;36472;52.170;20.884;2023-06-10T02:34:14;100454.19;;;19.79;48.44
21276;BME280;36472;52.170;20.884;2023-06-10T02:36:44;100455.03;;;19.79;48.67
21276;BME280;36472;52.170;20.884;2023-06-10T02:39:13;100455.38;;;19.76;48.75
21276;BME280;36472;52.170;20.884;2023-06-10T02:41:43;100454.50;;;19.76;48.96
21276;BME280;36472;52.170;20.884;2023-06-10T02:44:15;100459.69;;;19.77;48.09
21276;BME280;36472;52.170;20.884;2023-06-10T02:46:44;100463.63;;;19.73;48.02
21276;BME280;36472;52.170;20.884;2023-06-10T02:49:14;100463.63;;;19.73;48.54
21276;BME280;36472;52.170;20.884;2023-06-10T02:51:44;100459.13;;;19.74;48.61
21276;BME280;36472;52.170;20.884;2023-06-10T02:54:14;100464.56;;;19.64;48.50
21276;BME280;36472;52.170;20.884;2023-06-10T02:56:44;100469.38;;;19.60;49.49
21276;BME280;36472;52.170;20.884;2023-06-10T02:59:20;100464.41;;;19.66;49.04
21276;BME280;36472;52.170;20.884;2023-06-10T03:01:49;100474.34;;;19.55;49.25
21276;BME280;36472;52.170;20.884;2023-06-10T03:04:19;100476.84;;;19.57;49.30
21276;BME280;36472;52.170;20.884;2023-06-10T03:06:57;100480.03;;;19.60;49.16
21276;BME280;36472;52.170;20.884;2023-06-10T03:09:32;100478.53;;;19.58;49.03
21276;BME280;36472;52.170;20.884;2023-06-10T03:12:03;100478.91;;;19.63;49.29
21276;BME280;36472;52.170;20.884;2023-06-10T03:14:39;100475.94;;;19.66;49.64
21276;BME280;36472;52.170;20.884;2023-06-10T03:17:10;100476.97;;;19.73;49.48
21276;BME280;36472;52.170;20.884;2023-06-10T03:19:42;100481.47;;;19.73;50.50
21276;BME280;36472;52.170;20.884;2023-06-10T03:22:13;100486.59;;;19.66;50.00
21276;BME280;36472;52.170;20.884;2023-06-10T03:24:49;100479.94;;;19.70;51.07
21276;BME280;36472;52.170;20.884;2023-06-10T03:27:19;100485.94;;;19.72;50.39
21276;BME280;36472;52.170;20.884;2023-06-10T03:29:53;100489.31;;;19.74;50.41
21276;BME280;36472;52.170;20.884;2023-06-10T03:32:22;100493.66;;;19.75;51.52
21276;BME280;36472;52.170;20.884;2023-06-10T03:34:52;100489.00;;;19.77;50.93
21276;BME280;36472;52.170;20.884;2023-06-10T03:37:26;100497.16;;;19.76;51.07
21276;BME280;36472;52.170;20.884;2023-06-10T03:39:56;100494.34;;;19.77;52.17
21276;BME280;36472;52.170;20.884;2023-06-10T03:42:25;100500.53;;;19.78;51.74
21276;BME280;36472;52.170;20.884;2023-06-10T03:44:55;100499.69;;;19.77;50.97
21276;BME280;36472;52.170;20.884;2023-06-10T03:47:24;100511.19;;;19.78;51.09
21276;BME280;36472;52.170;20.884;2023-06-10T03:49:54;100501.50;;;19.77;51.18
21276;BME280;36472;52.170;20.884;2023-06-10T03:52:24;100507.28;;;19.72;51.28
21276;BME280;36472;52.170;20.884;2023-06-10T03:54:53;100510.09;;;19.71;52.28
21276;BME280;36472;52.170;20.884;2023-06-10T03:57:23;100504.91;;;19.69;51.69
21276;BME280;36472;52.170;20.884;2023-06-10T03:59:52;100502.09;;;19.71;52.19
21276;BME280;36472;52.170;20.884;2023-06-10T04:02:22;100506.31;;;19.73;51.72
21276;BME280;36472;52.170;20.884;2023-06-10T04:04:52;100508.69;;;19.76;52.69
21276;BME280;36472;52.170;20.884;2023-06-10T04:07:20;100512.47;;;19.74;52.62
21276;BME280;36472;52.170;20.884;2023-06-10T04:09:50;100508.91;;;19.83;52.32
21276;BME280;36472;52.170;20.884;2023-06-10T04:12:19;100517.78;;;19.92;53.57
21276;BME280;36472;52.170;20.884;2023-06-10T04:14:48;100518.28;;;19.95;52.39
21276;BME280;36472;52.170;20.884;2023-06-10T04:17:18;100524.97;;;19.99;52.00
21276;BME280;36472;52.170;20.884;2023-06-10T04:19:49;100514.16;;;20.01;51.94
21276;BME280;36472;52.170;20.884;2023-06-10T04:22:19;100516.50;;;20.04;51.59
21276;BME280;36472;52.170;20.884;2023-06-10T04:24:48;100515.69;;;20.04;51.57
21276;BME280;36472;52.170;20.884;2023-06-10T04:27:18;100504.50;;;20.08;51.86
21276;BME280;36472;52.170;20.884;2023-06-10T04:29:48;100519.03;;;20.06;52.27
21276;BME280;36472;52.170;20.884;2023-06-10T04:32:17;100513.88;;;20.12;51.99
21276;BME280;36472;52.170;20.884;2023-06-10T04:34:46;100511.22;;;20.21;51.38
21276;BME280;36472;52.170;20.884;2023-06-10T04:37:18;100514.72;;;20.13;52.45
21276;BME280;36472;52.170;20.884;2023-06-10T04:39:48;100517.56;;;20.20;51.85
21276;BME280;36472;52.170;20.884;2023-06-10T04:42:17;100519.06;;;20.22;51.96
21276;BME280;36472;52.170;20.884;2023-06-10T04:44:47;100524.59;;;20.29;52.69
21276;BME280;36472;52.170;20.884;2023-06-10T04:47:16;100528.13;;;20.37;52.80
21276;BME280;36472;52.170;20.884;2023-06-10T04:49:46;100530.97;;;20.36;51.18
21276;BME280;36472;52.170;20.884;2023-06-10T04:52:16;100524.53;;;20.47;50.95
21276;BME280;36472;52.170;20.884;2023-06-10T04:54:47;100530.72;;;20.55;51.01
21276;BME280;36472;52.170;20.884;2023-06-10T04:57:16;100531.53;;;20.56;50.89
21276;BME280;36472;52.170;20.884;2023-06-10T04:59:45;100529.53;;;20.58;50.99
21276;BME280;36472;52.170;20.884;2023-06-10T05:02:14;100531.06;;;20.61;51.07
21276;BME280;36472;52.170;20.884;2023-06-10T05:04:43;100534.28;;;20.64;51.48
21276;BME280;36472;52.170;20.884;2023-06-10T05:07:12;100532.66;;;20.80;51.76
21276;BME280;36472;52.170;20.884;2023-06-10T05:09:43;100539.50;;;20.90;50.40
21276;BME280;36472;52.170;20.884;2023-06-10T05:12:12;100537.34;;;20.94;49.84
21276;BME280;36472;52.170;20.884;2023-06-10T05:14:42;100543.72;;;21.01;50.98
21276;BME280;36472;52.170;20.884;2023-06-10T05:17:12;100543.91;;;21.08;50.56
21276;BME280;36472;52.170;20.884;2023-06-10T05:19:41;100539.06;;;21.11;50.87
21276;BME280;36472;52.170;20.884;2023-06-10T05:22:11;100544.22;;;21.21;50.10
21276;BME280;36472;52.170;20.884;2023-06-10T05:24:42;100546.88;;;21.21;50.24
21276;BME280;36472;52.170;20.884;2023-06-10T05:27:11;100546.41;;;21.34;50.28
21276;BME280;36472;52.170;20.884;2023-06-10T05:29:41;100543.25;;;21.47;49.27
21276;BME280;36472;52.170;20.884;2023-06-10T05:32:09;100544.25;;;21.62;50.18
21276;BME280;36472;52.170;20.884;2023-06-10T05:34:39;100549.25;;;21.82;49.58
21276;BME280;36472;52.170;20.884;2023-06-10T05:37:08;100553.03;;;22.12;48.33
21276;BME280;36472;52.170;20.884;2023-06-10T05:39:37;100546.78;;;22.36;48.24
21276;BME280;36472;52.170;20.884;2023-06-10T05:42:08;100546.97;;;22.66;49.14
21276;BME280;36472;52.170;20.884;2023-06-10T05:44:38;100537.50;;;22.78;48.23
21276;BME280;36472;52.170;20.884;2023-06-10T05:47:08;100548.34;;;22.85;47.24
21276;BME280;36472;52.170;20.884;2023-06-10T05:49:37;100545.81;;;22.92;47.94
21276;BME280;36472;52.170;20.884;2023-06-10T05:52:06;100556.28;;;23.02;46.75
21276;BME280;36472;52.170;20.884;2023-06-10T05:54:35;100549.53;;;23.14;46.15
21276;BME280;36472;52.170;20.884;2023-06-10T05:57:06;100543.59;;;23.27;46.24
21276;BME280;36472;52.170;20.884;2023-06-10T05:59:36;100552.03;;;23.39;46.04
21276;BME280;36472;52.170;20.884;2023-06-10T06:02:05;100552.63;;;23.49;45.01
21276;BME280;36472;52.170;20.884;2023-06-10T06:04:35;100547.16;;;23.57;45.38
21276;BME280;36472;52.170;20.884;2023-06-10T06:07:04;100560.91;;;23.77;44.97
21276;BME280;36472;52.170;20.884;2023-06-10T06:09:34;100555.84;;;23.82;45.40
21276;BME280;36472;52.170;20.884;2023-06-10T06:12:03;100554.28;;;24.03;44.00
21276;BME280;36472;52.170;20.884;2023-06-10T06:14:38;100558.34;;;24.28;43.92
21276;BME280;36472;52.170;20.884;2023-06-10T06:17:08;100555.13;;;24.48;43.23
21276;BME280;36472;52.170;20.884;2023-06-10T06:19:37;100563.75;;;24.58;43.37
21276;BME280;36472;52.170;20.884;2023-06-10T06:22:06;100561.88;;;24.59;42.40
21276;BME280;36472;52.170;20.884;2023-06-10T06:24:35;100559.19;;;24.59;42.68
21276;BME280;36472;52.170;20.884;2023-06-10T06:27:04;100556.97;;;24.62;42.94
21276;BME280;36472;52.170;20.884;2023-06-10T06:29:35;100555.25;;;24.76;43.06
21276;BME280;36472;52.170;20.884;2023-06-10T06:32:06;100547.97;;;24.92;42.83
21276;BME280;36472;52.170;20.884;2023-06-10T06:34:35;100553.50;;;25.05;42.62
21276;BME280;36472;52.170;20.884;2023-06-10T06:37:05;100558.31;;;25.10;42.22
21276;BME280;36472;52.170;20.884;2023-06-10T06:39:36;100555.09;;;25.21;42.20
21276;BME280;36472;52.170;20.884;2023-06-10T06:42:06;100559.22;;;25.38;42.02
21276;BME280;36472;52.170;20.884;2023-06-10T06:44:53;100555.81;;;25.51;40.93
21276;BME280;36472;52.170;20.884;2023-06-10T06:47:21;100561.25;;;25.36;41.00
21276;BME280;36472;52.170;20.884;2023-06-10T06:49:51;100549.59;;;25.51;40.99
21276;BME280;36472;52.170;20.884;2023-06-10T06:52:20;100577.13;;;25.53;41.34
21276;BME280;36472;52.170;20.884;2023-06-10T06:54:50;100571.25;;;25.64;40.96
21276;BME280;36472;52.170;20.884;2023-06-10T06:57:19;100575.81;;;25.70;41.20
21276;BME280;36472;52.170;20.884;2023-06-10T06:59:48;100574.66;;;25.80;41.54
21276;BME280;36472;52.170;20.884;2023-06-10T07:02:18;100569.22;;;26.01;41.16
21276;BME280;36472;52.170;20.884;2023-06-10T07:04:48;100578.84;;;26.10;40.22
21276;BME280;36472;52.170;20.884;2023-06-10T07:07:17;100575.75;;;26.13;40.02
21276;BME280;36472;52.170;20.884;2023-06-10T07:09:46;100585.03;;;26.11;40.64
21276;BME280;36472;52.170;20.884;2023-06-10T07:12:15;100579.69;;;26.18;40.18
21276;BME280;36472;52.170;20.884;2023-06-10T07:14:45;100580.50;;;26.18;40.44
21276;BME280;36472;52.170;20.884;2023-06-10T07:17:14;100584.22;;;26.10;40.03
21276;BME280;36472;52.170;20.884;2023-06-10T07:19:45;100578.28;;;26.28;40.04
21276;BME280;36472;52.170;20.884;2023-06-10T07:22:14;100577.31;;;26.36;40.38
21276;BME280;36472;52.170;20.884;2023-06-10T07:24:43;100575.31;;;26.52;39.55
21276;BME280;36472;52.170;20.884;2023-06-10T07:27:12;100579.78;;;26.79;39.75
21276;BME280;36472;52.170;20.884;2023-06-10T07:29:41;100590.84;;;26.98;38.74
21276;BME280;36472;52.170;20.884;2023-06-10T07:32:10;100582.56;;;27.06;38.26
21276;BME280;36472;52.170;20.884;2023-06-10T07:34:40;100580.06;;;27.04;38.17
21276;BME280;36472;52.170;20.884;2023-06-10T07:37:10;100584.22;;;27.07;38.57
21276;BME280;36472;52.170;20.884;2023-06-10T07:39:39;100581.94;;;27.17;37.68
21276;BME280;36472;52.170;20.884;2023-06-10T07:42:08;100580.72;;;27.20;38.41
21276;BME280;36472;52.170;20.884;2023-06-10T07:44:37;100583.00;;;27.16;37.43
21276;BME280;36472;52.170;20.884;2023-06-10T07:47:06;100587.34;;;27.24;38.25
21276;BME280;36472;52.170;20.884;2023-06-10T07:49:36;100588.59;;;27.21;37.89
21276;BME280;36472;52.170;20.884;2023-06-10T07:52:06;100590.44;;;27.01;38.40
21276;BME280;36472;52.170;20.884;2023-06-10T07:54:37;100591.81;;;26.77;38.14
21276;BME280;36472;52.170;20.884;2023-06-10T07:57:06;100585.91;;;26.60;38.55
21276;BME280;36472;52.170;20.884;2023-06-10T07:59:36;100594.25;;;26.65;37.76
21276;BME280;36472;52.170;20.884;2023-06-10T08:02:05;100594.50;;;26.70;38.21
21276;BME280;36472;52.170;20.884;2023-06-10T08:04:34;100596.13;;;26.71;37.92
21276;BME280;36472;52.170;20.884;2023-06-10T08:07:04;100596.19;;;26.84;38.91
21276;BME280;36472;52.170;20.884;2023-06-10T08:09:34;100597.66;;;26.94;39.28
21276;BME280;36472;52.170;20.884;2023-06-10T08:12:05;100601.03;;;27.02;37.13
21276;BME280;36472;52.170;20.884;2023-06-10T08:14:39;100596.41;;;26.90;37.61
21276;BME280;36472;52.170;20.884;2023-06-10T08:17:08;100599.69;;;26.78;38.33
21276;BME280;36472;52.170;20.884;2023-06-10T08:19:37;100601.56;;;26.84;38.35
21276;BME280;36472;52.170;20.884;2023-06-10T08:22:06;100605.94;;;26.85;36.23
21276;BME280;36472;52.170;20.884;2023-06-10T08:24:35;100610.25;;;26.66;36.80
21276;BME280;36472;52.170;20.884;2023-06-10T08:27:06;100603.94;;;26.59;37.05
21276;BME280;36472;52.170;20.884;2023-06-10T08:29:35;100593.13;;;26.53;36.61
21276;BME280;36472;52.170;20.884;2023-06-10T08:32:05;100600.78;;;26.49;37.57
21276;BME280;36472;52.170;20.884;2023-06-10T08:34:35;100601.84;;;26.55;37.83
21276;BME280;36472;52.170;20.884;2023-06-10T08:37:05;100607.66;;;26.52;37.44
21276;BME280;36472;52.170;20.884;2023-06-10T08:39:34;100599.09;;;26.41;38.35
21276;BME280;36472;52.170;20.884;2023-06-10T08:42:19;100596.31;;;26.28;37.33
21276;BME280;36472;52.170;20.884;2023-06-10T08:44:53;100594.38;;;26.15;38.08
21276;BME280;36472;52.170;20.884;2023-06-10T08:47:24;100599.59;;;26.23;38.90
21276;BME280;36472;52.170;20.884;2023-06-10T08:49:55;100602.50;;;26.22;36.73
21276;BME280;36472;52.170;20.884;2023-06-10T08:52:35;100602.69;;;26.13;37.64
21276;BME280;36472;52.170;20.884;2023-06-10T08:55:11;100603.53;;;26.21;36.33
21276;BME280;36472;52.170;20.884;2023-06-10T08:57:44;100600.13;;;26.40;36.83
21276;BME280;36472;52.170;20.884;2023-06-10T09:00:17;100609.94;;;26.55;37.46
21276;BME280;36472;52.170;20.884;2023-06-10T09:02:46;100603.94;;;26.59;38.28
21276;BME280;36472;52.170;20.884;2023-06-10T09:05:16;100609.28;;;26.53;37.25
21276;BME280;36472;52.170;20.884;2023-06-10T09:07:48;100605.75;;;26.45;36.63
21276;BME280;36472;52.170;20.884;2023-06-10T09:10:18;100609.47;;;26.44;36.71
21276;BME280;36472;52.170;20.884;2023-06-10T09:12:48;100604.25;;;26.36;36.60
21276;BME280;36472;52.170;20.884;2023-06-10T09:15:18;100605.91;;;26.37;36.64
21276;BME280;36472;52.170;20.884;2023-06-10T09:17:47;100609.91;;;26.48;36.12
21276;BME280;36472;52.170;20.884;2023-06-10T09:20:17;100607.75;;;26.65;36.09
21276;BME280;36472;52.170;20.884;2023-06-10T09:22:47;100621.03;;;26.80;36.21
21276;BME280;36472;52.170;20.884;2023-06-10T09:25:17;100616.50;;;26.80;35.09
21276;BME280;36472;52.170;20.884;2023-06-10T09:27:49;100616.94;;;26.84;35.45
21276;BME280;36472;52.170;20.884;2023-06-10T09:30:26;100614.28;;;27.11;35.63
21276;BME280;36472;52.170;20.884;2023-06-10T09:32:57;100621.84;;;27.29;36.46
21276;BME280;36472;52.170;20.884;2023-06-10T09:35:28;100622.00;;;27.27;36.32
21276;BME280;36472;52.170;20.884;2023-06-10T09:37:59;100624.78;;;27.40;36.37
21276;BME280;36472;52.170;20.884;2023-06-10T09:40:28;100629.47;;;27.18;36.89
21276;BME280;36472;52.170;20.884;2023-06-10T09:43:00;100621.94;;;27.00;36.49
21276;BME280;36472;52.170;20.884;2023-06-10T09:45:31;100624.81;;;26.85;36.42
21276;BME280;36472;52.170;20.884;2023-06-10T09:48:01;100630.94;;;26.66;36.46
21276;BME280;36472;52.170;20.884;2023-06-10T09:50:33;100626.16;;;26.61;37.14
21276;BME280;36472;52.170;20.884;2023-06-10T09:53:03;100615.63;;;26.66;37.58
21276;BME280;36472;52.170;20.884;2023-06-10T09:55:38;100624.34;;;26.68;36.52
21276;BME280;36472;52.170;20.884;2023-06-10T09:58:08;100628.13;;;26.81;36.74
21276;BME280;36472;52.170;20.884;2023-06-10T10:00:37;100632.09;;;26.92;35.37
21276;BME280;36472;52.170;20.884;2023-06-10T10:03:06;100626.97;;;27.10;34.98
21276;BME280;36472;52.170;20.884;2023-06-10T10:05:36;100623.47;;;27.16;35.96
21276;BME280;36472;52.170;20.884;2023-06-10T10:08:05;100631.81;;;27.28;35.63
21276;BME280;36472;52.170;20.884;2023-06-10T10:10:34;100628.06;;;27.36;33.37
21276;BME280;36472;52.170;20.884;2023-06-10T10:13:04;100621.69;;;27.50;34.16
21276;BME280;36472;52.170;20.884;2023-06-10T10:15:35;100619.38;;;27.74;32.33
21276;BME280;36472;52.170;20.884;2023-06-10T10:18:09;100611.28;;;27.80;30.08
21276;BME280;36472;52.170;20.884;2023-06-10T10:20:46;100626.03;;;27.78;29.95
21276;BME280;36472;52.170;20.884;2023-06-10T10:23:21;100627.91;;;27.77;28.79
21276;BME280;36472;52.170;20.884;2023-06-10T10:25:53;100627.47;;;27.74;28.46
21276;BME280;36472;52.170;20.884;2023-06-10T10:28:29;100626.84;;;27.72;28.63
21276;BME280;36472;52.170;20.884;2023-06-10T10:31:09;100606.72;;;27.74;28.58
21276;BME280;36472;52.170;20.884;2023-06-10T10:33:51;100612.56;;;27.98;27.95
21276;BME280;36472;52.170;20.884;2023-06-10T10:36:25;100611.66;;;28.24;28.56
21276;BME280;36472;52.170;20.884;2023-06-10T10:38:56;100597.44;;;28.49;28.28
21276;BME280;36472;52.170;20.884;2023-06-10T10:41:27;100616.09;;;28.70;24.32
21276;BME280;36472;52.170;20.884;2023-06-10T10:43:57;100619.59;;;28.78;25.29
21276;BME280;36472;52.170;20.884;2023-06-10T10:46:30;100618.38;;;28.73;25.58
21276;BME280;36472;52.170;20.884;2023-06-10T10:49:01;100623.38;;;28.77;26.33
21276;BME280;36472;52.170;20.884;2023-06-10T10:51:34;100617.06;;;28.89;25.48
21276;BME280;36472;52.170;20.884;2023-06-10T10:54:11;100622.63;;;29.01;25.83
21276;BME280;36472;52.170;20.884;2023-06-10T10:57:13;100625.03;;;29.23;26.32
21276;BME280;36472;52.170;20.884;2023-06-10T10:59:54;100613.31;;;29.29;24.62
21276;BME280;36472;52.170;20.884;2023-06-10T11:02:40;100616.56;;;29.38;23.87
21276;BME280;36472;52.170;20.884;2023-06-10T11:05:14;100607.22;;;29.40;25.25
21276;BME280;36472;52.170;20.884;2023-06-10T11:07:53;100617.13;;;29.15;25.23
21276;BME280;36472;52.170;20.884;2023-06-10T11:10:30;100609.59;;;28.85;26.25
21276;BME280;36472;52.170;20.884;2023-06-10T11:13:00;100605.00;;;28.92;27.19
21276;BME280;36472;52.170;20.884;2023-06-10T11:15:39;100600.28;;;29.44;24.92
21276;BME280;36472;52.170;20.884;2023-06-10T11:18:19;100605.28;;;29.73;24.38
21276;BME280;36472;52.170;20.884;2023-06-10T11:20:58;100603.25;;;29.93;24.66
21276;BME280;36472;52.170;20.884;2023-06-10T11:23:45;100600.41;;;30.25;24.95
21276;BME280;36472;52.170;20.884;2023-06-10T11:26:21;100590.09;;;30.34;25.13
21276;BME280;36472;52.170;20.884;2023-06-10T11:29:08;100592.38;;;30.18;24.81
21276;BME280;36472;52.170;20.884;2023-06-10T11:31:49;100601.69;;;29.79;25.01
21276;BME280;36472;52.170;20.884;2023-06-10T11:34:24;100595.44;;;29.28;24.84
21276;BME280;36472;52.170;20.884;2023-06-10T11:36:54;100590.06;;;29.15;26.43
21276;BME280;36472;52.170;20.884;2023-06-10T11:39:25;100593.72;;;28.95;25.53
21276;BME280;36472;52.170;20.884;2023-06-10T11:41:54;100587.75;;;28.80;26.21
21276;BME280;36472;52.170;20.884;2023-06-10T11:44:28;100589.13;;;28.57;26.10
21276;BME280;36472;52.170;20.884;2023-06-10T11:46:57;100579.38;;;28.43;28.01
21276;BME280;36472;52.170;20.884;2023-06-10T11:49:28;100581.53;;;28.27;28.31
21276;BME280;36472;52.170;20.884;2023-06-10T11:51:57;100582.94;;;28.36;27.61
21276;BME280;36472;52.170;20.884;2023-06-10T11:54:26;100571.69;;;28.46;27.64
21276;BME280;36472;52.170;20.884;2023-06-10T11:56:58;100574.44;;;28.33;28.60
21276;BME280;36472;52.170;20.884;2023-06-10T11:59:28;100576.72;;;28.29;28.03
21276;BME280;36472;52.170;20.884;2023-06-10T12:01:58;100569.81;;;28.40;26.88
21276;BME280;36472;52.170;20.884;2023-06-10T12:04:29;100574.41;;;28.40;26.86
21276;BME280;36472;52.170;20.884;2023-06-10T12:06:58;100573.63;;;28.32;26.54
21276;BME280;36472;52.170;20.884;2023-06-10T12:09:29;100579.44;;;28.23;27.37
21276;BME280;36472;52.170;20.884;2023-06-10T12:12:02;100572.19;;;28.16;27.04
21276;BME280;36472;52.170;20.884;2023-06-10T12:14:52;100567.25;;;28.07;26.75
21276;BME280;36472;52.170;20.884;2023-06-10T12:17:35;100554.78;;;27.92;27.18
21276;BME280;36472;52.170;20.884;2023-06-10T12:20:24;100572.25;;;27.83;26.14
21276;BME280;36472;52.170;20.884;2023-06-10T12:22:54;100560.41;;;27.77;26.18
21276;BME280;36472;52.170;20.884;2023-06-10T12:25:25;100557.94;;;27.69;27.11
21276;BME280;36472;52.170;20.884;2023-06-10T12:27:57;100560.38;;;27.84;28.81
21276;BME280;36472;52.170;20.884;2023-06-10T12:30:27;100562.25;;;27.77;28.19
21276;BME280;36472;52.170;20.884;2023-06-10T12:32:57;100556.44;;;27.80;28.08
21276;BME280;36472;52.170;20.884;2023-06-10T12:35:28;100564.75;;;27.78;28.32
21276;BME280;36472;52.170;20.884;2023-06-10T12:37:59;100548.78;;;27.70;28.80
21276;BME280;36472;52.170;20.884;2023-06-10T12:40:31;100546.72;;;27.66;29.33
21276;BME280;36472;52.170;20.884;2023-06-10T12:43:02;100544.63;;;27.68;29.54
21276;BME280;36472;52.170;20.884;2023-06-10T12:45:33;100543.16;;;27.65;31.22
21276;BME280;36472;52.170;20.884;2023-06-10T12:48:07;100533.63;;;27.69;31.54
21276;BME280;36472;52.170;20.884;2023-06-10T12:50:41;100538.16;;;27.75;31.60
21276;BME280;36472;52.170;20.884;2023-06-10T12:53:11;100532.97;;;27.80;31.97
21276;BME280;36472;52.170;20.884;2023-06-10T12:55:41;100542.72;;;27.88;31.92
21276;BME280;36472;52.170;20.884;2023-06-10T12:58:10;100534.03;;;27.93;32.26
21276;BME280;36472;52.170;20.884;2023-06-10T13:00:39;100535.47;;;27.82;32.12